Time;durP1;ratioP1;P1;durP2;ratioP2;P2;SDS_P1;SDS_P2;PMS_P1;PMS_P2;Temp;Humidity;BMP_temperature;BMP_pressure;BME280_temperature;BME280_humidity;BME280_pressure;Samples;Min_cycle;Max_cycle;Signal;HPM_P1;HPM_P2
2022/11/21 00:00:26;;;;;;;1.80;1.70;;;;;;;;;;4995957;28;20476;-25
2022/11/21 00:02:53;;;;;;;2.13;1.92;;;;;;;;;;4995432;28;20050;-22
2022/11/21 00:05:19;;;;;;;2.33;2.13;;;;;;;;;;4995887;28;20385;-22
2022/11/21 00:07:45;;;;;;;2.00;1.85;;;;;;;;;;4994634;28;20023;-27
2022/11/21 00:10:12;;;;;;;2.58;2.20;;;;;;;;;;4995487;28;20027;-23
2022/11/21 00:12:38;;;;;;;2.50;2.25;;;;;;;;;;4995386;28;20065;-22
2022/11/21 00:15:05;;;;;;;1.92;1.63;;;;;;;;;;4995430;28;20092;-22
2022/11/21 00:17:31;;;;;;;2.10;1.90;;;;;;;;;;4995461;28;20026;-23
2022/11/21 00:19:57;;;;;;;2.22;1.65;;;;;;;;;;4995392;28;20430;-22
2022/11/21 00:22:24;;;;;;;2.28;1.98;;;;;;;;;;4995191;28;20042;-23
2022/11/21 00:24:50;;;;;;;2.35;2.17;;;;;;;;;;4995855;28;20038;-23
2022/11/21 00:27:16;;;;;;;2.10;1.90;;;;;;;;;;4995309;28;20405;-22
2022/11/21 00:29:42;;;;;;;1.95;1.85;;;;;;;;;;4995260;28;20105;-25
2022/11/21 00:32:08;;;;;;;1.70;1.60;;;;;;;;;;4995456;28;20050;-23
2022/11/21 00:34:34;;;;;;;2.15;1.95;;;;;;;;;;4995238;28;20109;-22
2022/11/21 00:37:01;;;;;;;1.95;1.85;;;;;;;;;;4993890;28;20049;-23
2022/11/21 00:39:27;;;;;;;2.38;2.15;;;;;;;;;;4995226;28;20109;-23
2022/11/21 00:41:53;;;;;;;2.22;2.13;;;;;;;;;;4995067;28;20027;-22
2022/11/21 00:44:19;;;;;;;2.17;1.98;;;;;;;;;;4995714;28;20023;-23
2022/11/21 00:46:45;;;;;;;1.77;1.67;;;;;;;;;;4995135;28;20046;-22
2022/11/21 00:49:11;;;;;;;2.42;1.83;;;;;;;;;;4995166;28;20030;-23
2022/11/21 00:51:38;;;;;;;2.25;2.05;;;;;;;;;;4995055;28;20026;-23
2022/11/21 00:54:04;;;;;;;1.77;1.67;;;;;;;;;;4994098;28;20366;-22
2022/11/21 00:56:30;;;;;;;1.75;1.65;;;;;;;;;;4995079;28;20085;-27
2022/11/21 00:58:56;;;;;;;2.22;2.03;;;;;;;;;;4995017;28;20019;-23
2022/11/21 01:01:22;;;;;;;2.55;2.35;;;;;;;;;;4995023;28;20019;-22
2022/11/21 01:03:48;;;;;;;2.17;1.98;;;;;;;;;;4994695;28;20050;-23
2022/11/21 01:06:15;;;;;;;2.65;1.65;;;;;;;;;;4995236;28;20022;-22
2022/11/21 01:08:42;;;;;;;1.63;1.52;;;;;;;;;;4995186;28;20097;-22
2022/11/21 01:11:15;;;;;;;2.05;1.85;;;;;;;;;;4995182;28;20034;-22
2022/11/21 01:13:41;;;;;;;2.13;1.90;;;;;;;;;;4995360;28;20370;-22
2022/11/21 01:16:10;;;;;;;2.00;1.90;;;;;;;;;;4995163;28;20370;-22
2022/11/21 01:18:36;;;;;;;1.67;1.52;;;;;;;;;;4995151;28;20030;-22
2022/11/21 01:21:06;;;;;;;2.80;2.60;;;;;;;;;;4994841;28;20485;-23
2022/11/21 01:23:32;;;;;;;1.80;1.70;;;;;;;;;;4994992;28;20027;-22
2022/11/21 01:26:06;;;;;;;1.90;1.80;;;;;;;;;;4994878;28;20018;-23
2022/11/21 01:28:32;;;;;;;2.20;2.00;;;;;;;;;;4995145;28;20374;-24
2022/11/21 01:31:08;;;;;;;1.60;1.50;;;;;;;;;;4994777;28;20477;-22
2022/11/21 01:33:35;;;;;;;2.92;2.00;;;;;;;;;;4994914;28;20109;-22
2022/11/21 01:36:10;;;;;;;2.80;2.33;;;;;;;;;;4995010;28;20414;-22
2022/11/21 01:38:36;;;;;;;2.38;2.15;;;;;;;;;;4994972;28;20106;-22
2022/11/21 01:41:02;;;;;;;2.03;1.92;;;;;;;;;;4993849;28;20469;-24
2022/11/21 01:43:28;;;;;;;2.00;1.63;;;;;;;;;;4994552;28;20377;-22
2022/11/21 01:46:08;;;;;;;2.33;1.98;;;;;;;;;;4994926;28;20061;-22
2022/11/21 01:48:46;;;;;;;2.20;1.90;;;;;;;;;;4996489;28;20046;-23
2022/11/21 01:51:19;;;;;;;2.38;2.00;;;;;;;;;;4998099;28;20140;-25
2022/11/21 01:53:48;;;;;;;2.13;1.95;;;;;;;;;;4997942;28;20022;-22
2022/11/21 01:56:14;;;;;;;2.05;1.55;;;;;;;;;;4998513;28;20510;-22
2022/11/21 01:58:40;;;;;;;2.28;1.73;;;;;;;;;;4998219;28;20031;-22
2022/11/21 02:01:07;;;;;;;2.00;1.90;;;;;;;;;;4998165;28;20112;-23
2022/11/21 02:03:35;;;;;;;2.25;2.05;;;;;;;;;;4997392;28;20054;-22
2022/11/21 02:06:01;;;;;;;2.05;1.80;;;;;;;;;;4997838;28;20031;-24
2022/11/21 02:08:28;;;;;;;2.38;2.15;;;;;;;;;;4997758;28;20029;-22
2022/11/21 02:11:09;;;;;;;2.35;1.90;;;;;;;;;;4996747;28;20450;-26
2022/11/21 02:13:35;;;;;;;2.25;2.00;;;;;;;;;;4997882;28;20027;-22
2022/11/21 02:16:01;;;;;;;3.22;2.42;;;;;;;;;;4998170;28;20034;-25
2022/11/21 02:18:27;;;;;;;1.73;1.63;;;;;;;;;;4997871;28;20037;-23
2022/11/21 02:20:58;;;;;;;1.85;1.73;;;;;;;;;;4997517;28;20031;-22
2022/11/21 02:23:36;;;;;;;1.67;1.58;;;;;;;;;;4997412;28;20105;-22
2022/11/21 02:26:02;;;;;;;3.15;2.17;;;;;;;;;;4997739;28;20027;-24
2022/11/21 02:28:28;;;;;;;1.95;1.35;;;;;;;;;;4997432;28;20037;-23
2022/11/21 02:30:54;;;;;;;2.13;1.92;;;;;;;;;;4997578;28;20035;-23
2022/11/21 02:33:20;;;;;;;2.30;2.10;;;;;;;;;;4997340;28;20454;-22
2022/11/21 02:36:00;;;;;;;2.45;1.77;;;;;;;;;;4997782;28;20038;-24
2022/11/21 02:38:28;;;;;;;1.73;1.63;;;;;;;;;;4997196;28;20026;-24
2022/11/21 02:40:59;;;;;;;2.15;1.83;;;;;;;;;;4996161;28;20058;-22
2022/11/21 02:43:31;;;;;;;2.58;2.38;;;;;;;;;;4997105;28;20046;-23
2022/11/21 02:45:57;;;;;;;2.05;1.85;;;;;;;;;;4997316;28;20026;-24
2022/11/21 02:48:24;;;;;;;2.83;1.83;;;;;;;;;;4997016;28;20034;-22
2022/11/21 02:50:50;;;;;;;1.85;1.73;;;;;;;;;;4996962;28;20030;-21
2022/11/21 02:53:17;;;;;;;2.25;2.05;;;;;;;;;;4997396;28;20354;-22
2022/11/21 02:55:44;;;;;;;2.10;1.88;;;;;;;;;;4997391;28;20049;-23
2022/11/21 02:58:11;;;;;;;1.80;1.70;;;;;;;;;;4996883;28;20478;-25
2022/11/21 03:00:38;;;;;;;2.53;2.00;;;;;;;;;;4996734;28;20033;-22
2022/11/21 03:03:04;;;;;;;2.28;1.85;;;;;;;;;;4996413;28;20042;-24
2022/11/21 03:05:30;;;;;;;1.92;1.67;;;;;;;;;;4995809;28;20504;-22
2022/11/21 03:07:56;;;;;;;2.03;1.85;;;;;;;;;;4996629;28;20034;-22
2022/11/21 03:10:23;;;;;;;1.90;1.75;;;;;;;;;;4996636;28;20026;-27
2022/11/21 03:12:49;;;;;;;2.17;1.95;;;;;;;;;;4996739;28;20355;-23
2022/11/21 03:15:15;;;;;;;1.98;1.73;;;;;;;;;;4996449;28;20537;-22
2022/11/21 03:17:42;;;;;;;2.45;2.20;;;;;;;;;;4996723;28;20026;-22
2022/11/21 03:20:08;;;;;;;2.22;1.70;;;;;;;;;;4996404;28;20049;-22
2022/11/21 03:22:34;;;;;;;2.40;2.20;;;;;;;;;;4996197;28;20030;-24
2022/11/21 03:25:00;;;;;;;1.90;1.80;;;;;;;;;;4996263;28;20030;-23
2022/11/21 03:27:27;;;;;;;2.00;1.63;;;;;;;;;;4996560;28;20033;-23
2022/11/21 03:29:53;;;;;;;2.00;1.90;;;;;;;;;;4996220;28;20473;-23
2022/11/21 03:32:19;;;;;;;2.17;1.98;;;;;;;;;;4996140;28;20343;-24
2022/11/21 03:34:45;;;;;;;2.05;1.85;;;;;;;;;;4996116;28;20046;-22
2022/11/21 03:37:11;;;;;;;1.80;1.70;;;;;;;;;;4996099;28;20026;-23
2022/11/21 03:39:37;;;;;;;2.40;1.67;;;;;;;;;;4996067;28;20034;-23
2022/11/21 03:42:04;;;;;;;2.40;2.20;;;;;;;;;;4996135;28;20096;-23
2022/11/21 03:44:30;;;;;;;1.77;1.65;;;;;;;;;;4996244;28;20044;-22
2022/11/21 03:46:56;;;;;;;2.50;1.70;;;;;;;;;;4995905;28;20026;-22
2022/11/21 03:49:22;;;;;;;2.50;2.30;;;;;;;;;;4996167;28;20033;-25
2022/11/21 03:51:48;;;;;;;1.92;1.73;;;;;;;;;;4995753;28;20454;-22
2022/11/21 03:54:14;;;;;;;1.70;1.60;;;;;;;;;;4996101;28;20034;-22
2022/11/21 03:56:41;;;;;;;2.30;2.10;;;;;;;;;;4996230;28;20069;-22
2022/11/21 03:59:07;;;;;;;2.35;2.15;;;;;;;;;;4995736;28;20026;-27
2022/11/21 04:01:33;;;;;;;2.40;2.15;;;;;;;;;;4995963;28;20343;-24
2022/11/21 04:03:59;;;;;;;1.55;1.45;;;;;;;;;;4995331;28;20437;-22
2022/11/21 04:06:26;;;;;;;2.42;1.92;;;;;;;;;;4995594;28;20056;-23
2022/11/21 04:08:52;;;;;;;1.98;1.88;;;;;;;;;;4995560;28;20030;-22
2022/11/21 04:11:22;;;;;;;1.50;1.40;;;;;;;;;;4994863;28;20033;-23
2022/11/21 04:13:48;;;;;;;2.10;1.90;;;;;;;;;;4995391;28;20053;-23
2022/11/21 04:16:14;;;;;;;2.50;2.30;;;;;;;;;;4996016;28;20438;-24
2022/11/21 04:18:40;;;;;;;2.28;2.08;;;;;;;;;;4995438;28;20034;-22
2022/11/21 04:21:07;;;;;;;2.65;2.00;;;;;;;;;;4995704;28;20412;-22
2022/11/21 04:23:33;;;;;;;3.40;1.88;;;;;;;;;;4995493;28;20057;-23
2022/11/21 04:25:59;;;;;;;2.38;2.17;;;;;;;;;;4995286;28;20122;-23
2022/11/21 04:28:26;;;;;;;2.15;1.95;;;;;;;;;;4995345;28;20117;-22
2022/11/21 04:30:52;;;;;;;1.88;1.77;;;;;;;;;;4995755;28;20023;-24
2022/11/21 04:33:18;;;;;;;1.98;1.77;;;;;;;;;;4995315;28;20446;-22
2022/11/21 04:35:45;;;;;;;3.08;2.15;;;;;;;;;;4995515;28;20030;-22
2022/11/21 04:38:12;;;;;;;2.38;2.00;;;;;;;;;;4995505;28;20027;-23
2022/11/21 04:40:38;;;;;;;2.92;2.33;;;;;;;;;;4995686;28;20509;-22
2022/11/21 04:43:04;;;;;;;1.90;1.80;;;;;;;;;;4995323;28;20034;-21
2022/11/21 04:45:30;;;;;;;1.80;1.70;;;;;;;;;;4995390;28;20038;-23
2022/11/21 04:47:56;;;;;;;2.00;1.90;;;;;;;;;;4995872;28;20019;-22
2022/11/21 04:50:22;;;;;;;2.50;2.30;;;;;;;;;;4995100;28;20037;-23
2022/11/21 04:52:53;;;;;;;1.90;1.80;;;;;;;;;;4994943;28;20022;-22
2022/11/21 04:55:20;;;;;;;2.67;1.80;;;;;;;;;;4995310;28;20065;-23
2022/11/21 04:57:46;;;;;;;1.60;1.50;;;;;;;;;;4995230;28;20034;-22
2022/11/21 05:00:13;;;;;;;1.77;1.67;;;;;;;;;;4994896;28;20026;-25
2022/11/21 05:02:39;;;;;;;2.30;2.10;;;;;;;;;;4994467;28;20030;-21
2022/11/21 05:05:06;;;;;;;2.10;1.90;;;;;;;;;;4995249;28;20041;-22
2022/11/21 05:07:32;;;;;;;1.67;1.58;;;;;;;;;;4994942;28;20045;-23
2022/11/21 05:09:58;;;;;;;2.17;1.98;;;;;;;;;;4994926;28;20061;-23
2022/11/21 05:15:09;;;;;;;2.15;1.92;;;;;;;;;;4994940;28;20046;-23
2022/11/21 05:17:35;;;;;;;2.17;2.00;;;;;;;;;;4995118;28;20438;-23
2022/11/21 05:20:01;;;;;;;1.75;1.63;;;;;;;;;;4994789;28;20096;-23
2022/11/21 05:22:28;;;;;;;2.15;2.00;;;;;;;;;;4996229;28;20042;-23
2022/11/21 05:24:54;;;;;;;1.98;1.77;;;;;;;;;;4998555;28;20033;-23
2022/11/21 05:27:20;;;;;;;1.83;1.65;;;;;;;;;;4998510;28;20050;-23
2022/11/21 05:29:46;;;;;;;1.75;1.65;;;;;;;;;;4998455;28;20462;-23
2022/11/21 05:32:12;;;;;;;2.15;1.90;;;;;;;;;;4998339;28;20054;-22
2022/11/21 05:34:38;;;;;;;1.95;1.85;;;;;;;;;;4998305;28;20034;-23
2022/11/21 05:37:05;;;;;;;2.10;1.40;;;;;;;;;;4998257;28;20113;-23
2022/11/21 05:39:31;;;;;;;2.00;1.80;;;;;;;;;;4998502;28;20037;-22
2022/11/21 05:41:57;;;;;;;1.70;1.60;;;;;;;;;;4998042;28;20335;-24
2022/11/21 05:44:23;;;;;;;1.60;1.50;;;;;;;;;;4998156;28;20480;-22
2022/11/21 05:46:49;;;;;;;2.30;2.10;;;;;;;;;;4998123;28;20026;-24
2022/11/21 05:49:16;;;;;;;2.00;1.80;;;;;;;;;;4998076;28;20335;-22
2022/11/21 05:51:42;;;;;;;1.90;1.80;;;;;;;;;;4998001;28;20306;-25
2022/11/21 05:54:11;;;;;;;2.80;2.17;;;;;;;;;;4997923;28;20026;-22
2022/11/21 05:56:37;;;;;;;3.03;1.95;;;;;;;;;;4997945;28;20129;-22
2022/11/21 05:59:03;;;;;;;3.50;2.00;;;;;;;;;;4997963;28;20042;-23
2022/11/21 06:04:12;;;;;;;2.22;2.03;;;;;;;;;;4461811;26;20469;-31
2022/11/21 06:06:38;;;;;;;1.90;1.80;;;;;;;;;;4961276;28;20043;-30
2022/11/21 06:09:04;;;;;;;3.55;1.70;;;;;;;;;;4978291;28;20026;-30
2022/11/21 06:11:31;;;;;;;3.10;1.67;;;;;;;;;;4978187;28;20027;-30
2022/11/21 06:13:57;;;;;;;1.70;1.60;;;;;;;;;;4978069;28;20465;-30
2022/11/21 06:16:23;;;;;;;2.33;1.85;;;;;;;;;;4978383;28;20031;-30
2022/11/21 06:18:53;;;;;;;6.68;2.33;;;;;;;;;;4978021;28;20058;-30
2022/11/21 06:21:23;;;;;;;2.20;2.00;;;;;;;;;;4978319;28;20061;-30
2022/11/21 06:23:53;;;;;;;2.72;2.53;;;;;;;;;;4978135;28;20516;-31
2022/11/21 06:26:21;;;;;;;1.90;1.55;;;;;;;;;;4960916;28;20031;-30
2022/11/21 06:28:48;;;;;;;4.85;2.08;;;;;;;;;;4977961;28;20095;-31
2022/11/21 06:31:15;;;;;;;3.13;2.28;;;;;;;;;;4978931;28;20037;-30
2022/11/21 06:33:42;;;;;;;2.90;2.03;;;;;;;;;;4977099;28;20027;-31
2022/11/21 06:36:10;;;;;;;3.05;2.78;;;;;;;;;;4977687;28;20481;-31
2022/11/21 06:38:36;;;;;;;4.63;1.80;;;;;;;;;;4978742;28;20439;-28
2022/11/21 06:41:06;;;;;;;4.15;1.77;;;;;;;;;;4977591;28;20041;-31
2022/11/21 06:43:32;;;;;;;2.20;2.00;;;;;;;;;;4977598;28;20097;-31
2022/11/21 06:45:58;;;;;;;3.95;2.13;;;;;;;;;;4977820;28;20062;-32
2022/11/21 06:48:25;;;;;;;2.67;2.08;;;;;;;;;;4977777;28;20023;-32
2022/11/21 06:50:51;;;;;;;2.75;1.58;;;;;;;;;;4977458;28;20023;-31
2022/11/21 06:53:18;;;;;;;3.40;1.77;;;;;;;;;;4977375;28;20027;-32
2022/11/21 06:55:44;;;;;;;4.22;2.05;;;;;;;;;;4977277;28;20481;-31
2022/11/21 06:58:10;;;;;;;1.83;1.73;;;;;;;;;;4977377;28;20031;-32
2022/11/21 07:00:36;;;;;;;3.95;1.88;;;;;;;;;;4977736;28;20035;-31
2022/11/21 07:03:03;;;;;;;4.38;2.05;;;;;;;;;;4959892;28;20373;-32
2022/11/21 07:05:30;;;;;;;4.28;2.35;;;;;;;;;;4977414;28;20074;-31
2022/11/21 07:08:03;;;;;;;3.75;2.20;;;;;;;;;;4977389;28;20397;-32
2022/11/21 07:10:30;;;;;;;5.60;2.33;;;;;;;;;;4977452;28;20035;-31
2022/11/21 07:15:42;;;;;;;4.68;2.47;;;;;;;;;;4977352;28;20093;-31
2022/11/21 07:18:08;;;;;;;3.08;1.90;;;;;;;;;;4977185;28;20093;-30
2022/11/21 07:20:34;;;;;;;2.88;1.90;;;;;;;;;;4976826;28;20114;-31
2022/11/21 07:23:00;;;;;;;3.58;2.05;;;;;;;;;;4976736;28;20061;-31
2022/11/21 07:25:26;;;;;;;2.05;1.70;;;;;;;;;;4977186;28;20026;-32
2022/11/21 07:27:52;;;;;;;2.45;2.25;;;;;;;;;;4976988;28;20019;-32
2022/11/21 07:30:19;;;;;;;2.58;1.92;;;;;;;;;;4976460;28;20454;-31
2022/11/21 07:32:45;;;;;;;2.20;2.00;;;;;;;;;;4976721;28;20054;-31
2022/11/21 07:35:11;;;;;;;2.22;2.03;;;;;;;;;;4976579;28;20478;-31
2022/11/21 07:37:38;;;;;;;2.65;2.15;;;;;;;;;;4976777;28;20030;-31
2022/11/21 07:40:05;;;;;;;4.72;2.22;;;;;;;;;;4976779;28;20113;-31
2022/11/21 07:42:34;;;;;;;2.17;1.88;;;;;;;;;;4959816;28;20054;-31
2022/11/21 07:45:00;;;;;;;8.10;3.53;;;;;;;;;;4975971;28;20027;-31
2022/11/21 07:47:26;;;;;;;10.88;3.05;;;;;;;;;;4976166;28;20073;-32
2022/11/21 07:49:53;;;;;;;2.92;2.10;;;;;;;;;;4959343;28;20113;-31
2022/11/21 07:52:19;;;;;;;6.70;1.77;;;;;;;;;;4976497;28;20031;-31
2022/11/21 07:54:45;;;;;;;6.68;2.30;;;;;;;;;;4976223;28;20090;-31
2022/11/21 07:57:11;;;;;;;3.45;1.63;;;;;;;;;;4976490;28;20401;-30
2022/11/21 07:59:37;;;;;;;3.10;2.20;;;;;;;;;;4976459;28;20023;-31
2022/11/21 08:02:03;;;;;;;2.42;1.90;;;;;;;;;;4975844;28;20114;-30
2022/11/21 08:04:29;;;;;;;4.75;2.08;;;;;;;;;;4975708;28;20054;-30
2022/11/21 08:06:56;;;;;;;6.07;2.15;;;;;;;;;;4959181;28;20353;-30
2022/11/21 08:09:22;;;;;;;3.45;2.30;;;;;;;;;;4975949;28;20034;-31
2022/11/21 08:11:48;;;;;;;4.65;2.25;;;;;;;;;;4975823;28;20390;-30
2022/11/21 08:14:14;;;;;;;9.45;2.42;;;;;;;;;;4976163;28;20030;-30
2022/11/21 08:16:40;;;;;;;7.20;2.40;;;;;;;;;;4976162;28;20362;-31
2022/11/21 08:19:07;;;;;;;15.77;2.95;;;;;;;;;;4976158;28;20046;-30
2022/11/21 08:21:33;;;;;;;3.80;1.92;;;;;;;;;;4975860;28;20335;-30
2022/11/21 08:23:59;;;;;;;2.97;2.15;;;;;;;;;;4975595;28;20369;-30
2022/11/21 08:26:25;;;;;;;7.88;2.40;;;;;;;;;;4959193;28;20411;-30
2022/11/21 08:28:52;;;;;;;4.65;2.55;;;;;;;;;;4976141;28;20327;-31
2022/11/21 08:31:18;;;;;;;3.50;2.17;;;;;;;;;;4975713;28;20027;-30
2022/11/21 08:33:44;;;;;;;7.20;2.05;;;;;;;;;;4975513;28;20043;-31
2022/11/21 08:36:10;;;;;;;6.82;2.67;;;;;;;;;;4975654;28;20458;-31
2022/11/21 08:38:36;;;;;;;3.58;2.15;;;;;;;;;;4975915;28;20089;-30
2022/11/21 08:43:47;;;;;;;6.13;2.40;;;;;;;;;;4975691;28;20463;-31
2022/11/21 08:46:13;;;;;;;8.25;2.28;;;;;;;;;;4958850;28;20033;-32
2022/11/21 08:48:39;;;;;;;6.75;2.75;;;;;;;;;;4975600;28;20034;-30
2022/11/21 08:51:05;;;;;;;4.82;2.40;;;;;;;;;;4975668;28;20102;-31
2022/11/21 08:53:32;;;;;;;5.20;2.88;;;;;;;;;;4975523;28;20047;-30
2022/11/21 08:55:58;;;;;;;8.88;2.63;;;;;;;;;;4976117;28;20037;-31
2022/11/21 08:58:24;;;;;;;7.93;2.05;;;;;;;;;;4961591;28;20042;-31
2022/11/21 09:00:50;;;;;;;7.70;2.08;;;;;;;;;;4980014;28;20090;-31
2022/11/21 09:03:16;;;;;;;15.57;5.10;;;;;;;;;;4978977;28;20047;-30
2022/11/21 09:05:42;;;;;;;6.45;2.55;;;;;;;;;;4979403;28;20121;-31
2022/11/21 09:08:08;;;;;;;9.00;2.33;;;;;;;;;;4979246;28;20027;-31
2022/11/21 09:10:35;;;;;;;6.38;2.67;;;;;;;;;;4979213;28;20113;-31
2022/11/21 09:13:01;;;;;;;10.95;2.50;;;;;;;;;;4979474;28;20049;-30
2022/11/21 09:18:12;;;;;;;5.60;2.33;;;;;;;;;;4979134;28;20366;-30
2022/11/21 09:20:40;;;;;;;7.95;2.40;;;;;;;;;;4979762;28;20030;-30
2022/11/21 09:23:10;;;;;;;3.95;2.22;;;;;;;;;;4978825;28;20035;-31
2022/11/21 09:25:36;;;;;;;14.48;3.70;;;;;;;;;;4979502;28;20037;-30
2022/11/21 09:28:03;;;;;;;4.78;2.40;;;;;;;;;;4978961;28;20446;-31
2022/11/21 09:30:29;;;;;;;10.90;3.30;;;;;;;;;;4978752;28;20027;-30
2022/11/21 09:32:59;;;;;;;8.30;2.05;;;;;;;;;;4978627;28;20023;-30
2022/11/21 09:35:25;;;;;;;8.55;2.17;;;;;;;;;;4979017;28;20031;-31
2022/11/21 09:37:51;;;;;;;4.15;2.13;;;;;;;;;;4961466;28;20031;-31
2022/11/21 09:40:18;;;;;;;8.88;2.97;;;;;;;;;;4979169;28;20042;-31
2022/11/21 09:42:53;;;;;;;10.05;2.42;;;;;;;;;;4978410;28;20053;-31
2022/11/21 09:45:22;;;;;;;8.30;2.50;;;;;;;;;;4978495;28;20446;-32
2022/11/21 09:47:50;;;;;;;9.75;2.38;;;;;;;;;;4978714;28;20023;-31
2022/11/21 09:50:16;;;;;;;9.38;3.30;;;;;;;;;;4978445;28;20094;-30
2022/11/21 09:52:42;;;;;;;11.52;3.25;;;;;;;;;;4978655;28;20089;-31
2022/11/21 09:55:32;;;;;;;3.15;2.20;;;;;;;;;;4978370;28;20323;-31
2022/11/21 09:58:00;;;;;;;7.88;2.45;;;;;;;;;;4968664;28;20069;-31
2022/11/21 10:00:27;;;;;;;11.50;2.88;;;;;;;;;;4978515;28;20361;-30
2022/11/21 10:02:54;;;;;;;8.80;2.67;;;;;;;;;;4977862;28;20245;-31
2022/11/21 10:05:43;;;;;;;13.05;2.85;;;;;;;;;;4978471;28;20177;-31
2022/11/21 10:08:29;;;;;;;25.73;4.63;;;;;;;;;;4977523;28;20045;-31
2022/11/21 10:11:08;;;;;;;12.60;3.10;;;;;;;;;;4978002;28;20027;-31
2022/11/21 10:13:43;;;;;;;4.43;2.40;;;;;;;;;;4978089;28;20035;-31
2022/11/21 10:16:13;;;;;;;9.93;2.55;;;;;;;;;;4978030;28;20062;-31
2022/11/21 10:18:48;;;;;;;10.48;2.42;;;;;;;;;;4978047;28;20023;-31
2022/11/21 10:21:24;;;;;;;15.77;3.13;;;;;;;;;;4978002;28;20089;-30
2022/11/21 10:23:58;;;;;;;8.82;2.38;;;;;;;;;;4977894;28;20046;-31
2022/11/21 10:26:24;;;;;;;10.60;2.47;;;;;;;;;;4978181;28;20030;-31
2022/11/21 10:28:53;;;;;;;13.93;3.67;;;;;;;;;;4977563;28;20029;-32
2022/11/21 10:31:20;;;;;;;7.05;2.58;;;;;;;;;;4977763;28;20034;-32
2022/11/21 10:33:47;;;;;;;5.30;2.20;;;;;;;;;;4977499;28;20125;-31
2022/11/21 10:36:22;;;;;;;9.10;3.28;;;;;;;;;;4977742;28;20175;-31
2022/11/21 10:38:49;;;;;;;12.88;2.20;;;;;;;;;;4977504;28;20134;-31
2022/11/21 10:41:18;;;;;;;5.85;3.15;;;;;;;;;;4977436;28;20026;-31
2022/11/21 10:46:54;;;;;;;6.30;3.85;;;;;;;;;;4977908;28;20089;-30
2022/11/21 10:49:20;;;;;;;14.15;2.47;;;;;;;;;;4977339;28;20085;-31
2022/11/21 10:51:58;;;;;;;7.22;2.80;;;;;;;;;;4977277;28;20039;-33
2022/11/21 10:54:33;;;;;;;5.88;2.72;;;;;;;;;;4977696;28;20096;-31
2022/11/21 10:57:02;;;;;;;9.45;3.10;;;;;;;;;;4977780;28;20061;-30
2022/11/21 10:59:29;;;;;;;7.53;3.38;;;;;;;;;;4977185;28;20118;-31
2022/11/21 11:01:59;;;;;;;5.13;2.17;;;;;;;;;;4977312;28;20041;-33
2022/11/21 11:04:26;;;;;;;6.35;3.22;;;;;;;;;;4977300;28;20105;-32
2022/11/21 11:06:52;;;;;;;11.55;2.47;;;;;;;;;;4960283;28;20031;-31
2022/11/21 11:09:23;;;;;;;12.43;3.65;;;;;;;;;;4977517;28;20031;-32
2022/11/21 11:11:49;;;;;;;9.07;2.30;;;;;;;;;;4977271;28;20109;-32
2022/11/21 11:14:26;;;;;;;8.05;1.90;;;;;;;;;;4976987;28;20415;-31
2022/11/21 11:16:52;;;;;;;9.80;2.65;;;;;;;;;;4959772;28;20030;-32
2022/11/21 11:19:23;;;;;;;13.77;3.05;;;;;;;;;;4976875;28;20039;-32
2022/11/21 11:21:49;;;;;;;8.90;3.63;;;;;;;;;;4976840;28;20065;-31
2022/11/21 11:24:16;;;;;;;9.10;1.98;;;;;;;;;;4976815;28;20376;-31
2022/11/21 11:26:48;;;;;;;12.07;2.85;;;;;;;;;;4977345;28;20050;-31
2022/11/21 11:29:17;;;;;;;7.28;2.63;;;;;;;;;;4976506;28;20042;-32
2022/11/21 11:31:45;;;;;;;12.75;3.20;;;;;;;;;;4976522;28;20034;-31
2022/11/21 11:34:13;;;;;;;10.15;2.88;;;;;;;;;;4976635;28;20055;-31
2022/11/21 11:36:56;;;;;;;12.27;3.22;;;;;;;;;;4976493;28;20062;-31
2022/11/21 11:39:36;;;;;;;12.05;2.65;;;;;;;;;;4976447;28;20077;-32
2022/11/21 11:48:00;;;;;;;7.15;2.33;;;;;;;;;;4976667;28;20178;-32
2022/11/21 11:50:31;;;;;;;8.98;3.40;;;;;;;;;;4959348;28;20031;-32
2022/11/21 11:53:04;;;;;;;9.70;3.25;;;;;;;;;;4976314;28;20042;-31
2022/11/21 11:55:44;;;;;;;14.38;2.92;;;;;;;;;;4976326;28;20037;-31
2022/11/21 11:58:20;;;;;;;11.57;4.63;;;;;;;;;;4976541;28;20038;-31
2022/11/21 12:00:49;;;;;;;11.55;3.88;;;;;;;;;;4976239;28;20027;-31
2022/11/21 12:03:15;;;;;;;12.43;2.55;;;;;;;;;;4975830;28;20047;-32
2022/11/21 12:05:55;;;;;;;8.18;2.83;;;;;;;;;;4976112;28;20035;-31
2022/11/21 12:08:26;;;;;;;9.93;2.78;;;;;;;;;;4975962;28;20027;-31
2022/11/21 12:14:11;;;;;;;7.85;2.42;;;;;;;;;;4975962;28;20076;-30
2022/11/21 12:16:39;;;;;;;8.15;2.80;;;;;;;;;;4959756;28;20038;-31
2022/11/21 12:19:12;;;;;;;7.10;2.47;;;;;;;;;;4976210;28;20165;-31
2022/11/21 12:21:38;;;;;;;12.85;3.50;;;;;;;;;;4976416;28;20159;-30
2022/11/21 12:24:05;;;;;;;12.02;2.80;;;;;;;;;;4959131;28;20446;-32
2022/11/21 12:26:34;;;;;;;20.85;4.22;;;;;;;;;;4975892;28;20037;-31
2022/11/21 12:29:19;;;;;;;13.02;4.20;;;;;;;;;;4975853;28;20093;-31
2022/11/21 12:32:01;;;;;;;8.75;3.03;;;;;;;;;;4958164;28;20057;-32
2022/11/21 12:34:39;;;;;;;16.02;3.03;;;;;;;;;;4976090;28;20023;-31
2022/11/21 12:37:25;;;;;;;6.78;2.80;;;;;;;;;;4975698;28;20062;-30
2022/11/21 12:40:09;;;;;;;12.63;3.20;;;;;;;;;;4976040;28;20312;-30
2022/11/21 12:42:48;;;;;;;10.80;2.90;;;;;;;;;;4976029;28;20450;-31
2022/11/21 12:45:33;;;;;;;8.63;2.58;;;;;;;;;;4975641;28;20034;-31
2022/11/21 12:54:32;;;;;;;15.38;3.42;;;;;;;;;;4975611;28;20042;-30
2022/11/21 12:57:11;;;;;;;14.82;3.45;;;;;;;;;;4975739;28;20050;-30
2022/11/21 12:59:46;;;;;;;11.30;3.72;;;;;;;;;;4975523;28;20358;-31
2022/11/21 13:02:26;;;;;;;8.85;3.03;;;;;;;;;;4975479;28;20055;-30
2022/11/21 13:04:53;;;;;;;15.95;3.13;;;;;;;;;;4975887;28;20038;-30
2022/11/21 13:07:20;;;;;;;14.27;3.28;;;;;;;;;;4975830;28;20050;-31
2022/11/21 13:09:48;;;;;;;17.23;3.05;;;;;;;;;;4975763;28;20143;-31
2022/11/21 13:12:32;;;;;;;15.55;3.70;;;;;;;;;;4975484;28;20039;-31
2022/11/21 13:15:18;;;;;;;13.23;3.40;;;;;;;;;;4975484;28;20031;-31
2022/11/21 13:18:20;;;;;;;9.05;2.80;;;;;;;;;;4962362;28;20434;-31
2022/11/21 13:20:48;;;;;;;11.98;2.65;;;;;;;;;;4882028;29;20044;-31
2022/11/21 13:23:34;;;;;;;18.38;2.92;;;;;;;;;;4960545;28;20131;-31
2022/11/21 13:26:00;;;;;;;13.13;2.95;;;;;;;;;;4975298;28;20038;-31
2022/11/21 13:28:31;;;;;;;7.75;2.47;;;;;;;;;;4958338;28;20450;-31
2022/11/21 13:30:58;;;;;;;11.30;2.45;;;;;;;;;;4975393;28;20027;-31
2022/11/21 13:33:36;;;;;;;4.15;2.05;;;;;;;;;;4975329;28;20114;-31
2022/11/21 13:36:04;;;;;;;5.47;2.92;;;;;;;;;;4975601;28;20031;-31
2022/11/21 13:38:31;;;;;;;18.05;4.07;;;;;;;;;;4958365;28;20031;-31
2022/11/21 13:43:43;;;;;;;10.43;3.55;;;;;;;;;;4976860;28;20038;-31
2022/11/21 13:46:09;;;;;;;14.82;3.55;;;;;;;;;;4978606;28;20111;-30
2022/11/21 13:48:40;;;;;;;9.52;3.03;;;;;;;;;;4979147;28;20023;-31
2022/11/21 13:51:06;;;;;;;16.48;3.20;;;;;;;;;;4979153;28;20027;-31
2022/11/21 13:53:51;;;;;;;9.35;3.00;;;;;;;;;;4978340;28;20074;-32
2022/11/21 13:56:36;;;;;;;8.02;3.05;;;;;;;;;;4979054;28;20062;-31
2022/11/21 13:59:18;;;;;;;5.25;3.15;;;;;;;;;;4978788;28;20037;-31
2022/11/21 14:01:44;;;;;;;;;;;;;;;;;;4961479;28;20039;-31
2022/11/21 14:04:18;;;;;;;10.40;2.90;;;;;;;;;;4978113;28;20424;-30
2022/11/21 14:06:45;;;;;;;10.88;3.05;;;;;;;;;;4978307;28;20022;-30
2022/11/21 14:09:14;;;;;;;18.70;3.22;;;;;;;;;;4978448;28;20031;-31
2022/11/21 14:11:47;;;;;;;10.73;3.35;;;;;;;;;;4978389;28;20051;-30
2022/11/21 14:14:23;;;;;;;16.83;2.90;;;;;;;;;;4978380;28;20031;-30
2022/11/21 14:16:52;;;;;;;15.05;3.20;;;;;;;;;;4978255;28;20023;-31
2022/11/21 14:19:19;;;;;;;17.65;3.22;;;;;;;;;;4978377;28;20041;-31
2022/11/21 14:21:47;;;;;;;16.55;3.20;;;;;;;;;;4978195;28;20074;-32
2022/11/21 14:24:15;;;;;;;16.17;3.83;;;;;;;;;;4977890;28;20065;-32
2022/11/21 14:26:44;;;;;;;25.02;3.60;;;;;;;;;;4977945;28;20027;-31
2022/11/21 14:29:22;;;;;;;10.80;3.60;;;;;;;;;;4977848;28;20458;-31
2022/11/21 14:31:49;;;;;;;15.15;4.90;;;;;;;;;;4977715;28;20026;-31
2022/11/21 14:34:28;;;;;;;14.18;3.78;;;;;;;;;;4977765;28;20027;-31
2022/11/21 14:36:57;;;;;;;21.65;4.18;;;;;;;;;;4977932;28;20053;-31
2022/11/21 14:39:25;;;;;;;16.05;3.55;;;;;;;;;;4977757;28;20473;-31
2022/11/21 14:41:52;;;;;;;13.40;3.10;;;;;;;;;;4977846;28;20382;-31
2022/11/21 14:44:19;;;;;;;18.23;4.10;;;;;;;;;;4977797;28;20341;-32
2022/11/21 14:46:46;;;;;;;16.10;3.78;;;;;;;;;;4977643;28;20027;-32
2022/11/21 14:49:12;;;;;;;23.15;3.90;;;;;;;;;;4977569;28;20031;-31
2022/11/21 14:51:40;;;;;;;18.17;3.45;;;;;;;;;;4977539;28;20027;-31
2022/11/21 14:54:12;;;;;;;13.98;3.40;;;;;;;;;;4977524;28;20097;-31
2022/11/21 14:56:40;;;;;;;14.77;3.92;;;;;;;;;;4977347;28;20093;-31
2022/11/21 14:59:13;;;;;;;20.50;4.55;;;;;;;;;;4977338;28;20035;-30
2022/11/21 15:01:39;;;;;;;12.07;3.47;;;;;;;;;;4977641;28;20034;-31
2022/11/21 15:04:06;;;;;;;16.25;3.47;;;;;;;;;;4977014;28;20042;-30
2022/11/21 15:06:42;;;;;;;13.10;2.92;;;;;;;;;;4977741;28;20342;-30
2022/11/21 15:09:14;;;;;;;13.57;3.08;;;;;;;;;;4977254;28;20027;-32
2022/11/21 15:11:41;;;;;;;21.45;4.00;;;;;;;;;;4977162;28;20019;-31
2022/11/21 15:14:27;;;;;;;15.55;3.33;;;;;;;;;;4959971;28;20072;-31
2022/11/21 15:16:54;;;;;;;9.98;3.28;;;;;;;;;;4977628;28;20034;-30
2022/11/21 15:19:22;;;;;;;11.93;3.50;;;;;;;;;;4977470;28;20041;-29
2022/11/21 15:21:48;;;;;;;12.73;3.25;;;;;;;;;;4977170;28;20034;-31
2022/11/21 15:24:16;;;;;;;15.73;3.50;;;;;;;;;;4977298;28;20042;-31